Time;durP1;ratioP1;P1;durP2;ratioP2;P2;SDS_P1;SDS_P2;PMS_P1;PMS_P2;Temp;Humidity;BMP_temperature;BMP_pressure;BME280_temperature;BME280_humidity;BME280_pressure;Samples;Min_cycle;Max_cycle;Signal;HPM_P1;HPM_P2
2022/07/01 00:01:46;;;;;;;0.65;0.10;;;17.60;99.90;;;;;;5076792;28;20044;-87
2022/07/01 00:04:11;;;;;;;1.92;0.20;;;17.60;99.90;;;;;;5059764;28;20115;-87
2022/07/01 00:06:37;;;;;;;0.65;0.30;;;17.60;99.90;;;;;;5076681;28;20513;-85
2022/07/01 00:09:06;;;;;;;1.63;0.30;;;17.60;99.90;;;;;;5077349;28;20021;-87
2022/07/01 00:11:32;;;;;;;0.38;0.20;;;17.60;99.90;;;;;;5059061;28;20028;-87
2022/07/01 00:13:58;;;;;;;0.85;0.15;;;17.60;99.90;;;;;;5070186;28;20052;-87
2022/07/01 00:16:24;;;;;;;1.02;0.10;;;17.60;99.90;;;;;;5076106;28;20028;-87
2022/07/01 00:18:49;;;;;;;0.10;0.10;;;17.60;99.90;;;;;;5075768;28;20174;-87
2022/07/01 00:21:15;;;;;;;1.80;0.10;;;17.50;99.90;;;;;;5075998;28;20100;-86
2022/07/01 00:23:41;;;;;;;0.55;0.20;;;17.50;99.90;;;;;;5085174;28;20062;-87
2022/07/01 00:26:08;;;;;;;0.10;0.10;;;17.50;99.90;;;;;;5097332;28;20028;-87
2022/07/01 00:28:33;;;;;;;1.90;0.20;;;17.50;99.90;;;;;;5094968;28;20095;-87
2022/07/01 00:30:59;;;;;;;0.50;0.30;;;17.50;99.90;;;;;;5095695;28;20154;-87
2022/07/01 00:33:25;;;;;;;0.28;0.20;;;17.50;99.90;;;;;;5096147;28;20046;-87
2022/07/01 00:35:52;;;;;;;1.13;0.20;;;17.50;99.90;;;;;;5095048;28;20032;-87
2022/07/01 00:38:18;;;;;;;0.30;0.15;;;17.50;99.90;;;;;;5095703;28;20030;-87
2022/07/01 00:40:43;;;;;;;0.85;0.13;;;17.50;99.90;;;;;;5096995;28;20103;-86
2022/07/01 00:43:09;;;;;;;2.05;0.20;;;17.50;99.90;;;;;;5095683;28;20039;-87
2022/07/01 00:45:34;;;;;;;0.47;0.30;;;17.50;99.90;;;;;;5095731;28;20020;-88
2022/07/01 00:48:00;;;;;;;0.85;0.20;;;17.40;99.90;;;;;;5097064;28;20073;-87
2022/07/01 00:50:26;;;;;;;0.30;0.22;;;17.50;99.90;;;;;;5095896;28;20089;-88
2022/07/01 00:52:52;;;;;;;1.60;0.32;;;17.50;99.90;;;;;;5095115;28;20036;-88
2022/07/01 00:55:18;;;;;;;0.45;0.17;;;17.40;99.90;;;;;;5095629;28;20110;-85
2022/07/01 00:57:44;;;;;;;0.68;0.20;;;17.40;99.90;;;;;;5096120;28;20048;-87
2022/07/01 01:00:13;;;;;;;0.28;0.10;;;17.40;99.90;;;;;;5095482;28;20027;-86
2022/07/01 01:02:39;;;;;;;0.20;0.10;;;17.40;99.90;;;;;;5094753;28;20020;-86
2022/07/01 01:05:07;;;;;;;1.42;0.30;;;17.40;99.90;;;;;;5096274;28;20020;-85
2022/07/01 01:07:33;;;;;;;1.48;0.28;;;17.40;99.90;;;;;;5094668;28;20020;-86
2022/07/01 01:10:00;;;;;;;0.30;0.20;;;17.50;99.90;;;;;;5096216;28;20095;-85
2022/07/01 01:12:26;;;;;;;0.63;0.10;;;17.50;99.90;;;;;;5093058;28;20027;-85
2022/07/01 01:14:52;;;;;;;0.28;0.20;;;17.50;99.90;;;;;;5075374;28;20103;-86
2022/07/01 01:17:19;;;;;;;0.45;0.20;;;17.50;99.90;;;;;;5057871;28;20025;-86
2022/07/01 01:19:45;;;;;;;0.20;0.10;;;17.50;99.90;;;;;;5057703;28;20029;-86
2022/07/01 01:22:15;;;;;;;1.35;0.20;;;17.50;99.90;;;;;;5075605;28;20074;-86
2022/07/01 01:24:41;;;;;;;0.10;0.10;;;17.50;99.90;;;;;;5074814;28;20016;-86
2022/07/01 01:27:07;;;;;;;2.63;0.20;;;17.60;99.90;;;;;;5057700;28;20028;-86
2022/07/01 01:29:35;;;;;;;0.20;0.20;;;17.60;99.90;;;;;;5074743;28;20021;-86
2022/07/01 01:32:00;;;;;;;1.92;0.32;;;17.50;99.90;;;;;;5057985;28;20029;-86
2022/07/01 01:34:26;;;;;;;2.00;0.30;;;17.60;99.90;;;;;;5075521;28;20521;-86
2022/07/01 01:36:52;;;;;;;1.58;0.17;;;17.60;99.90;;;;;;5057526;28;20029;-87
2022/07/01 01:39:18;;;;;;;0.60;0.22;;;17.60;99.90;;;;;;5075454;28;20026;-86
2022/07/01 01:41:45;;;;;;;1.10;0.30;;;17.60;99.90;;;;;;5057160;28;20028;-86
2022/07/01 01:44:11;;;;;;;0.68;0.20;;;17.50;99.90;;;;;;5057324;28;20477;-86
2022/07/01 01:46:37;;;;;;;0.77;0.20;;;17.60;99.90;;;;;;5057012;28;20057;-86
2022/07/01 01:49:04;;;;;;;0.43;0.10;;;17.50;99.90;;;;;;5057748;28;20016;-86
2022/07/01 01:51:30;;;;;;;0.20;0.10;;;17.50;99.90;;;;;;5057613;28;20055;-87
2022/07/01 01:53:56;;;;;;;0.50;0.20;;;17.50;99.90;;;;;;5057805;28;20071;-86
2022/07/01 01:56:23;;;;;;;1.25;0.20;;;17.50;99.90;;;;;;5075520;28;20414;-86
2022/07/01 01:58:49;;;;;;;0.30;0.10;;;17.40;99.90;;;;;;5057189;28;20020;-86
2022/07/01 02:01:16;;;;;;;1.35;0.20;;;17.40;99.90;;;;;;5057745;28;20082;-86
2022/07/01 02:03:44;;;;;;;2.42;0.20;;;17.40;99.90;;;;;;5057600;28;20038;-86
2022/07/01 02:06:11;;;;;;;0.60;0.15;;;17.40;99.90;;;;;;5057454;28;20028;-86
2022/07/01 02:08:38;;;;;;;1.15;0.17;;;17.50;99.90;;;;;;5057126;28;20085;-86
2022/07/01 02:11:04;;;;;;;0.20;0.20;;;17.40;99.90;;;;;;5057229;28;20111;-85
2022/07/01 02:13:31;;;;;;;0.60;0.30;;;17.40;99.90;;;;;;5074363;28;20062;-86
2022/07/01 02:15:56;;;;;;;0.47;0.20;;;17.30;99.90;;;;;;5094233;28;20119;-87
2022/07/01 02:18:22;;;;;;;0.45;0.30;;;17.30;99.90;;;;;;5093830;28;20110;-86
2022/07/01 02:20:48;;;;;;;0.63;0.25;;;17.30;99.90;;;;;;5093214;28;20073;-86
2022/07/01 02:23:14;;;;;;;1.08;0.28;;;17.30;99.90;;;;;;5093315;28;20028;-86
2022/07/01 02:25:40;;;;;;;0.75;0.25;;;17.20;99.90;;;;;;5093156;28;20026;-86
2022/07/01 02:28:07;;;;;;;0.55;0.20;;;17.30;99.90;;;;;;5093972;28;20468;-86
2022/07/01 02:30:36;;;;;;;1.65;0.40;;;17.30;99.90;;;;;;5094420;28;20406;-87
2022/07/01 02:33:05;;;;;;;0.75;0.30;;;17.20;99.90;;;;;;5093742;28;20046;-86
2022/07/01 02:35:36;;;;;;;0.90;0.30;;;17.20;99.90;;;;;;5093740;28;20465;-87
2022/07/01 02:38:03;;;;;;;2.28;0.25;;;17.20;99.90;;;;;;5094669;28;20093;-86
2022/07/01 02:40:28;;;;;;;0.50;0.20;;;17.30;99.90;;;;;;5094703;28;20576;-89
2022/07/01 02:42:54;;;;;;;0.98;0.30;;;17.20;99.90;;;;;;5093519;28;20080;-86
2022/07/01 02:45:20;;;;;;;0.70;0.20;;;17.20;99.90;;;;;;5093520;28;20031;-86
2022/07/01 02:47:45;;;;;;;1.10;0.30;;;17.20;99.90;;;;;;5093434;28;20051;-86
2022/07/01 02:50:12;;;;;;;0.30;0.20;;;17.20;99.90;;;;;;5093812;28;20019;-86
2022/07/01 02:52:39;;;;;;;1.50;0.30;;;17.20;99.90;;;;;;5094108;28;20024;-86
2022/07/01 02:55:08;;;;;;;0.45;0.30;;;17.20;99.90;;;;;;5093752;28;20024;-86
2022/07/01 02:57:34;;;;;;;1.73;0.20;;;17.20;99.90;;;;;;5093834;28;20035;-86
2022/07/01 03:00:00;;;;;;;1.10;0.20;;;17.20;99.90;;;;;;5093904;28;20028;-86
2022/07/01 03:02:26;;;;;;;2.92;0.30;;;17.20;99.90;;;;;;5094782;28;20103;-86
2022/07/01 03:04:52;;;;;;;2.20;0.40;;;17.20;99.90;;;;;;5093217;28;20109;-86
2022/07/01 03:07:20;;;;;;;2.05;0.32;;;17.10;99.90;;;;;;5093705;28;20032;-86
2022/07/01 03:09:46;;;;;;;2.25;0.93;;;17.10;99.90;;;;;;5093168;28;20491;-86
2022/07/01 03:12:25;;;;;;;2.08;0.50;;;17.10;99.90;;;;;;5094079;28;20040;-87
2022/07/01 03:14:59;;;;;;;1.15;0.45;;;17.10;99.90;;;;;;5092351;28;20036;-86
2022/07/01 03:17:29;;;;;;;2.35;0.40;;;17.00;99.90;;;;;;5093097;28;20024;-86
2022/07/01 03:19:56;;;;;;;1.53;0.50;;;17.10;99.90;;;;;;5094394;28;20107;-86
2022/07/01 03:22:24;;;;;;;0.70;0.50;;;17.10;99.90;;;;;;5093491;28;20261;-86
2022/07/01 03:24:50;;;;;;;2.45;0.60;;;17.20;99.90;;;;;;5092719;28;20024;-86
2022/07/01 03:27:16;;;;;;;0.93;0.60;;;17.10;99.90;;;;;;5093026;28;20082;-86
2022/07/01 03:29:42;;;;;;;0.82;0.50;;;17.00;99.90;;;;;;5093098;28;20036;-86
2022/07/01 03:32:11;;;;;;;1.20;0.80;;;16.90;99.90;;;;;;5093053;28;20040;-86
2022/07/01 03:34:39;;;;;;;3.00;0.60;;;17.00;99.90;;;;;;5093486;28;20036;-86
2022/07/01 03:37:05;;;;;;;3.50;0.70;;;16.90;99.90;;;;;;5098255;28;20028;-85
2022/07/01 03:39:31;;;;;;;1.65;0.68;;;16.90;99.90;;;;;;5096917;28;20024;-89
2022/07/01 03:41:57;;;;;;;2.15;0.60;;;16.80;99.90;;;;;;5097484;28;20037;-84
2022/07/01 03:44:23;;;;;;;1.77;0.80;;;16.90;99.90;;;;;;5096806;28;20028;-86
2022/07/01 03:46:48;;;;;;;1.38;0.65;;;16.90;99.90;;;;;;5096502;28;20024;-86
2022/07/01 03:49:14;;;;;;;0.80;0.60;;;16.90;99.90;;;;;;5096667;28;20020;-86
2022/07/01 03:51:39;;;;;;;0.93;0.70;;;17.00;99.90;;;;;;5096619;28;20069;-87
2022/07/01 03:56:49;;;;;;;0.77;0.50;;;17.00;99.90;;;;;;5079171;28;20035;-86
2022/07/01 03:59:14;;;;;;;1.75;0.80;;;17.10;99.90;;;;;;5096394;28;20028;-86
2022/07/01 04:01:40;;;;;;;1.27;0.68;;;16.90;99.90;;;;;;5096457;28;20384;-86
2022/07/01 04:04:06;;;;;;;0.45;0.45;;;16.90;99.90;;;;;;5096795;28;20045;-86
2022/07/01 04:06:31;;;;;;;1.30;0.60;;;16.90;99.90;;;;;;5096166;28;20113;-89
2022/07/01 04:08:57;;;;;;;2.15;0.50;;;17.00;99.90;;;;;;5076424;28;20028;-86
2022/07/01 04:11:23;;;;;;;1.90;0.57;;;16.90;99.90;;;;;;5076598;28;20074;-86
2022/07/01 04:13:52;;;;;;;0.40;0.40;;;16.90;99.90;;;;;;5075056;28;20052;-86
2022/07/01 04:16:17;;;;;;;0.73;0.30;;;16.90;99.90;;;;;;5076224;28;20032;-86
2022/07/01 04:18:43;;;;;;;2.90;0.40;;;16.90;99.90;;;;;;5075684;28;20080;-86
2022/07/01 04:23:53;;;;;;;1.50;0.43;;;16.80;99.90;;;;;;5077212;28;20484;-85
2022/07/01 04:26:19;;;;;;;0.75;0.32;;;16.80;99.90;;;;;;5092990;28;20110;-86
2022/07/01 04:28:44;;;;;;;2.10;0.20;;;16.80;99.90;;;;;;5095820;28;20024;-86
2022/07/01 04:31:10;;;;;;;0.93;0.50;;;16.70;99.90;;;;;;5096223;28;20518;-86
2022/07/01 04:33:36;;;;;;;3.22;0.30;;;16.70;99.90;;;;;;5095877;28;20028;-86
2022/07/01 04:36:02;;;;;;;0.47;0.30;;;16.70;99.90;;;;;;5096342;28;20053;-86
2022/07/01 04:38:27;;;;;;;3.13;0.30;;;16.80;99.90;;;;;;5096005;28;20031;-87
2022/07/01 04:43:37;;;;;;;1.10;0.30;;;16.80;99.90;;;;;;5096888;28;20049;-87
2022/07/01 04:46:03;;;;;;;0.40;0.40;;;16.80;99.90;;;;;;5095746;28;20028;-86
2022/07/01 04:48:28;;;;;;;0.60;0.20;;;16.80;99.90;;;;;;5095489;28;20028;-86
2022/07/01 04:50:54;;;;;;;1.55;0.32;;;16.80;99.90;;;;;;5096613;28;20365;-86
2022/07/01 04:53:19;;;;;;;0.90;0.28;;;16.80;99.90;;;;;;5095476;28;20035;-87
2022/07/01 04:55:45;;;;;;;1.45;0.40;;;16.80;99.90;;;;;;5094994;28;20025;-86
2022/07/01 04:58:13;;;;;;;0.38;0.20;;;16.80;99.90;;;;;;5095441;28;20044;-86
2022/07/01 05:00:38;;;;;;;2.33;0.30;;;16.80;99.90;;;;;;5094915;28;20053;-86
2022/07/01 05:03:04;;;;;;;1.50;0.30;;;16.80;99.90;;;;;;5095410;28;20126;-86
2022/07/01 05:05:29;;;;;;;0.88;0.25;;;16.80;99.90;;;;;;5095566;28;20429;-89
2022/07/01 05:07:55;;;;;;;1.63;0.30;;;16.80;99.90;;;;;;5095652;28;20035;-86
2022/07/01 05:10:21;;;;;;;1.10;0.35;;;16.80;99.90;;;;;;5095746;28;20388;-85
2022/07/01 05:12:46;;;;;;;3.30;0.20;;;16.80;99.90;;;;;;5094066;28;20048;-85
2022/07/01 05:15:12;;;;;;;2.40;1.00;;;16.90;99.90;;;;;;5095132;28;20039;-86
2022/07/01 05:23:06;;;;;;;2.05;0.43;;;16.80;99.90;;;;;;5080649;28;20092;-86
2022/07/01 05:25:31;;;;;;;1.15;0.30;;;16.80;99.90;;;;;;5095748;28;20099;-87
2022/07/01 05:27:57;;;;;;;0.40;0.40;;;16.80;99.90;;;;;;5095520;28;20031;-86
2022/07/01 05:30:23;;;;;;;3.47;0.60;;;16.90;99.90;;;;;;5095447;28;20036;-86
2022/07/01 05:32:48;;;;;;;0.85;0.57;;;16.80;99.90;;;;;;5094433;28;20571;-86
2022/07/01 05:35:14;;;;;;;0.68;0.50;;;16.80;99.90;;;;;;5095296;28;20487;-86
2022/07/01 05:37:40;;;;;;;1.52;0.40;;;16.80;99.90;;;;;;5094291;28;20028;-87
2022/07/01 05:40:07;;;;;;;0.93;0.30;;;16.80;99.90;;;;;;5094849;28;20429;-87
2022/07/01 05:42:33;;;;;;;0.93;0.20;;;16.80;99.90;;;;;;5093944;28;20063;-88
2022/07/01 05:44:58;;;;;;;0.52;0.40;;;16.80;99.90;;;;;;5095275;28;20024;-84
2022/07/01 05:47:24;;;;;;;3.03;0.47;;;16.70;99.90;;;;;;5095424;28;20028;-86
2022/07/01 05:49:50;;;;;;;2.38;0.70;;;16.80;99.90;;;;;;5093970;28;20028;-86
2022/07/01 05:52:15;;;;;;;1.75;0.50;;;16.80;99.90;;;;;;5095123;28;20027;-85
2022/07/01 05:54:41;;;;;;;1.75;0.50;;;16.80;99.90;;;;;;5094487;28;20024;-86
2022/07/01 05:57:07;;;;;;;4.82;0.47;;;16.80;99.90;;;;;;5093382;28;20024;-85
2022/07/01 05:59:32;;;;;;;2.50;0.63;;;16.80;99.90;;;;;;5093657;28;20052;-85
2022/07/01 06:01:58;;;;;;;1.00;0.43;;;16.80;99.90;;;;;;5094388;28;20028;-85
2022/07/01 06:04:23;;;;;;;2.95;0.88;;;16.70;99.90;;;;;;5094329;28;20032;-85
2022/07/01 06:06:49;;;;;;;1.75;0.75;;;16.80;99.90;;;;;;5094578;28;20098;-85
2022/07/01 06:09:15;;;;;;;2.45;0.82;;;16.80;99.90;;;;;;5094552;28;20107;-85
2022/07/01 06:11:40;;;;;;;1.77;0.73;;;16.80;99.90;;;;;;5093619;28;20028;-85
2022/07/01 06:14:06;;;;;;;1.38;0.50;;;16.80;99.90;;;;;;5093321;28;20085;-84
2022/07/01 06:16:32;;;;;;;1.13;0.50;;;16.80;99.90;;;;;;5091810;28;20032;-86
2022/07/01 06:18:58;;;;;;;1.35;0.55;;;16.80;99.90;;;;;;5092861;28;20020;-85
2022/07/01 06:21:23;;;;;;;0.47;0.43;;;16.70;99.90;;;;;;5094444;28;20024;-85
2022/07/01 06:23:49;;;;;;;0.70;0.50;;;16.80;99.90;;;;;;5092926;28;20362;-84
2022/07/01 06:26:14;;;;;;;1.38;0.50;;;16.80;99.90;;;;;;5093307;28;20020;-85
2022/07/01 06:28:41;;;;;;;1.38;0.57;;;16.80;99.90;;;;;;5096042;28;20445;-86
2022/07/01 06:31:07;;;;;;;1.08;0.50;;;16.90;99.90;;;;;;5093628;28;20020;-85
2022/07/01 06:33:33;;;;;;;1.63;0.65;;;16.90;99.90;;;;;;5093706;28;20478;-85
2022/07/01 06:35:59;;;;;;;0.98;0.68;;;16.90;99.90;;;;;;5093242;28;20484;-85
2022/07/01 06:38:26;;;;;;;1.30;0.60;;;16.90;99.90;;;;;;5088371;28;20115;-84
2022/07/01 06:43:36;;;;;;;1.25;0.60;;;16.90;99.90;;;;;;5091862;28;20116;-84
2022/07/01 06:46:02;;;;;;;1.85;0.75;;;16.90;99.90;;;;;;5086342;28;20052;-85
2022/07/01 06:48:28;;;;;;;3.40;1.40;;;17.00;99.90;;;;;;5093784;28;20063;-88
2022/07/01 06:50:54;;;;;;;3.50;1.50;;;17.00;99.90;;;;;;5093027;28;20070;-85
2022/07/01 06:53:19;;;;;;;3.05;0.90;;;16.90;99.90;;;;;;5094654;28;20039;-84
2022/07/01 06:55:45;;;;;;;1.00;0.80;;;16.80;99.90;;;;;;5092683;28;20523;-85
2022/07/01 06:58:11;;;;;;;2.75;0.90;;;16.90;99.90;;;;;;5093300;28;20020;-85
2022/07/01 07:00:37;;;;;;;2.03;0.90;;;16.90;99.90;;;;;;5092543;28;20020;-85
2022/07/01 07:03:02;;;;;;;1.98;1.10;;;16.80;99.90;;;;;;5093389;28;20024;-85
2022/07/01 07:05:30;;;;;;;1.13;0.93;;;16.90;99.90;;;;;;5089665;28;20115;-89
2022/07/01 07:07:57;;;;;;;2.70;1.00;;;16.90;99.90;;;;;;5093193;28;20085;-85
2022/07/01 07:10:22;;;;;;;2.75;1.27;;;17.00;99.90;;;;;;5092661;28;20028;-85
2022/07/01 07:12:48;;;;;;;1.88;1.10;;;17.00;99.90;;;;;;5089410;28;20056;-85
2022/07/01 07:15:14;;;;;;;1.25;0.85;;;17.00;99.90;;;;;;5093368;28;20464;-85
2022/07/01 07:17:40;;;;;;;3.20;1.17;;;17.00;99.90;;;;;;5093530;28;20025;-85
2022/07/01 07:20:06;;;;;;;3.03;1.33;;;17.10;99.90;;;;;;5092816;28;20024;-85
2022/07/01 07:22:32;;;;;;;2.65;1.00;;;17.10;99.90;;;;;;5093442;28;20034;-87
2022/07/01 07:24:57;;;;;;;3.97;1.75;;;17.20;99.90;;;;;;5092749;28;20111;-85
2022/07/01 07:27:23;;;;;;;1.58;1.17;;;17.20;99.90;;;;;;5092907;28;20453;-85
2022/07/01 07:29:48;;;;;;;3.38;1.02;;;17.10;99.90;;;;;;5091884;28;20057;-85
2022/07/01 07:32:14;;;;;;;2.80;1.48;;;17.00;99.90;;;;;;5092599;28;20047;-86
2022/07/01 07:34:39;;;;;;;1.83;1.30;;;17.00;99.90;;;;;;5092001;28;20476;-85
2022/07/01 07:37:05;;;;;;;3.65;1.55;;;17.00;99.90;;;;;;5092884;28;20032;-85
2022/07/01 07:39:31;;;;;;;3.72;1.40;;;17.00;99.90;;;;;;5092118;28;20032;-85
2022/07/01 07:41:57;;;;;;;2.50;0.95;;;16.90;99.90;;;;;;5092553;28;20048;-85
2022/07/01 07:44:23;;;;;;;3.40;1.13;;;17.00;99.90;;;;;;5092321;28;20553;-85
2022/07/01 07:46:49;;;;;;;3.05;1.10;;;17.00;99.90;;;;;;5092017;28;20050;-85
2022/07/01 07:49:15;;;;;;;1.77;0.90;;;17.00;99.90;;;;;;5092416;28;20024;-86
2022/07/01 07:51:40;;;;;;;2.38;1.20;;;17.00;99.90;;;;;;5092328;28;20056;-85
2022/07/01 07:54:06;;;;;;;2.30;1.20;;;17.00;99.90;;;;;;5092733;28;20077;-85
2022/07/01 07:56:32;;;;;;;2.30;1.13;;;17.00;99.90;;;;;;5093243;28;20250;-87
2022/07/01 07:58:57;;;;;;;2.17;1.00;;;16.90;99.90;;;;;;5092726;28;20054;-85
2022/07/01 08:01:23;;;;;;;1.70;1.40;;;16.90;99.90;;;;;;5092490;28;20020;-85
2022/07/01 08:03:49;;;;;;;3.05;1.30;;;16.90;99.90;;;;;;5093170;28;20032;-84
2022/07/01 08:06:14;;;;;;;2.42;1.20;;;16.90;99.90;;;;;;5093763;28;20016;-85
2022/07/01 08:08:40;;;;;;;4.18;1.23;;;16.90;99.90;;;;;;5091910;28;20031;-85
2022/07/01 08:11:05;;;;;;;1.73;1.00;;;16.80;99.90;;;;;;5093290;28;20055;-85
2022/07/01 08:13:31;;;;;;;3.38;1.27;;;16.80;99.90;;;;;;5091045;28;20052;-85
2022/07/01 08:15:57;;;;;;;3.40;1.30;;;16.70;99.90;;;;;;5095050;28;20032;-85
2022/07/01 08:18:23;;;;;;;1.27;1.00;;;16.60;99.90;;;;;;5098124;28;20034;-84
2022/07/01 08:20:52;;;;;;;3.63;1.30;;;16.60;99.90;;;;;;5093712;28;20028;-84
2022/07/01 08:23:19;;;;;;;1.95;1.10;;;16.60;99.90;;;;;;5096023;28;20028;-85
2022/07/01 08:25:45;;;;;;;2.70;1.20;;;16.60;99.90;;;;;;5096253;28;20098;-84
2022/07/01 08:28:10;;;;;;;1.58;0.98;;;16.60;99.90;;;;;;5096031;28;20024;-84
2022/07/01 08:30:36;;;;;;;1.67;1.00;;;16.70;99.90;;;;;;5096293;28;20020;-84
2022/07/01 08:33:01;;;;;;;3.75;1.10;;;16.70;99.90;;;;;;5096390;28;20036;-84
2022/07/01 08:35:28;;;;;;;2.97;1.05;;;16.70;99.90;;;;;;5095540;28;20016;-85
2022/07/01 08:37:53;;;;;;;2.00;0.80;;;16.70;99.90;;;;;;5095804;28;20024;-85
2022/07/01 08:40:23;;;;;;;2.10;1.08;;;16.80;99.90;;;;;;5096647;28;20020;-84
2022/07/01 08:42:49;;;;;;;1.33;0.90;;;16.90;99.90;;;;;;5095740;28;20032;-85
2022/07/01 08:45:15;;;;;;;2.58;0.90;;;17.00;99.90;;;;;;5096281;28;20020;-85
2022/07/01 08:47:52;;;;;;;2.90;0.90;;;17.10;99.90;;;;;;5091419;28;20421;-85
2022/07/01 08:50:17;;;;;;;1.85;0.90;;;17.10;99.90;;;;;;5090026;28;20029;-84
2022/07/01 08:52:43;;;;;;;3.50;0.80;;;17.20;99.90;;;;;;5094608;28;20314;-85
2022/07/01 08:55:09;;;;;;;1.50;0.88;;;17.20;99.90;;;;;;5095360;28;20027;-85
2022/07/01 08:57:34;;;;;;;1.98;0.70;;;17.20;99.90;;;;;;5095244;28;20028;-85
2022/07/01 09:00:05;;;;;;;3.45;0.82;;;17.20;99.90;;;;;;5095746;28;20537;-84
2022/07/01 09:02:57;;;;;;;2.28;0.70;;;17.20;99.90;;;;;;5094922;28;20046;-87
2022/07/01 09:05:24;;;;;;;1.20;0.77;;;17.30;99.90;;;;;;5096645;28;20065;-84
2022/07/01 09:08:02;;;;;;;2.53;0.70;;;17.40;99.90;;;;;;5096412;28;20460;-91
2022/07/01 09:10:34;;;;;;;2.45;0.65;;;17.50;99.90;;;;;;5095234;28;20453;-91
2022/07/01 09:13:12;;;;;;;2.22;0.68;;;17.60;99.90;;;;;;5087296;28;20047;-86
2022/07/01 09:15:39;;;;;;;1.05;0.60;;;17.70;99.90;;;;;;5095473;28;20476;-86
2022/07/01 09:18:17;;;;;;;1.90;0.98;;;17.80;99.90;;;;;;5095909;28;20028;-85
2022/07/01 09:20:45;;;;;;;1.70;1.00;;;17.80;99.90;;;;;;5094573;28;20028;-86
2022/07/01 09:23:14;;;;;;;3.17;1.00;;;17.80;99.90;;;;;;5095140;28;20028;-87
2022/07/01 09:25:51;;;;;;;3.75;1.00;;;17.90;99.90;;;;;;5093957;28;20039;-86
2022/07/01 09:28:16;;;;;;;1.48;0.70;;;18.10;99.90;;;;;;5094798;28;20035;-86
2022/07/01 09:30:46;;;;;;;2.25;0.98;;;18.20;99.90;;;;;;5094926;28;20031;-87
2022/07/01 09:33:16;;;;;;;3.63;1.25;;;18.30;99.90;;;;;;5095540;28;20035;-86
2022/07/01 09:35:44;;;;;;;2.42;1.05;;;18.20;99.90;;;;;;5094756;28;20053;-86
2022/07/01 09:38:15;;;;;;;4.78;1.70;;;18.30;99.90;;;;;;5094063;28;20115;-86
2022/07/01 09:40:48;;;;;;;3.08;1.20;;;18.40;99.90;;;;;;5093562;28;20035;-87
2022/07/01 09:43:20;;;;;;;2.25;1.20;;;18.40;99.90;;;;;;5095320;28;20087;-86
2022/07/01 09:45:56;;;;;;;1.15;0.80;;;18.30;99.90;;;;;;5092978;28;20062;-86
2022/07/01 09:48:23;;;;;;;2.42;0.70;;;18.40;99.90;;;;;;5089240;28;20024;-87
2022/07/01 09:50:50;;;;;;;1.95;1.10;;;18.50;99.90;;;;;;5094392;28;20063;-86
2022/07/01 09:53:16;;;;;;;2.05;1.10;;;18.40;99.90;;;;;;5093855;28;20024;-87
2022/07/01 09:55:42;;;;;;;1.52;0.65;;;18.50;99.90;;;;;;5094461;28;20039;-88
2022/07/01 09:58:08;;;;;;;4.40;0.80;;;18.30;99.90;;;;;;5095545;28;20411;-87
2022/07/01 10:00:36;;;;;;;1.73;0.73;;;18.50;99.90;;;;;;5093822;28;20043;-89
2022/07/01 10:03:05;;;;;;;0.65;0.50;;;18.60;99.90;;;;;;5095488;28;20020;-86
2022/07/01 10:05:45;;;;;;;0.95;0.60;;;18.60;99.90;;;;;;5094404;28;20035;-90
2022/07/01 10:08:37;;;;;;;2.80;0.88;;;18.80;99.90;;;;;;5094367;28;20059;-86
2022/07/01 10:11:29;;;;;;;5.15;0.60;;;19.00;99.90;;;;;;5094020;28;20122;-87
2022/07/01 10:13:58;;;;;;;1.10;0.68;;;19.10;99.90;;;;;;5084444;28;20052;-85
2022/07/01 10:16:24;;;;;;;1.90;0.70;;;19.10;99.90;;;;;;5094525;28;20039;-85
2022/07/01 10:18:50;;;;;;;1.55;0.60;;;18.90;99.90;;;;;;5092831;28;20063;-85
2022/07/01 10:21:30;;;;;;;3.03;0.80;;;18.80;99.90;;;;;;5094546;28;20051;-84
2022/07/01 10:24:16;;;;;;;1.85;0.90;;;18.80;99.90;;;;;;5094879;28;20036;-85
2022/07/01 10:26:42;;;;;;;1.65;0.57;;;18.70;99.90;;;;;;5092168;28;20101;-86
2022/07/01 10:29:34;;;;;;;3.63;1.17;;;18.70;99.90;;;;;;5093615;28;20036;-86
2022/07/01 10:32:08;;;;;;;2.70;1.20;;;18.80;99.90;;;;;;5086677;28;20024;-85
2022/07/01 10:34:43;;;;;;;4.47;1.35;;;18.90;99.90;;;;;;5093934;28;20032;-86
2022/07/01 10:37:10;;;;;;;2.53;1.48;;;19.10;99.90;;;;;;5094329;28;20035;-85
2022/07/01 10:39:56;;;;;;;2.03;0.75;;;19.10;99.90;;;;;;5093432;28;20028;-85
2022/07/01 10:42:26;;;;;;;1.20;0.60;;;19.10;99.90;;;;;;5093300;28;20020;-85
2022/07/01 10:45:09;;;;;;;1.03;0.50;;;19.10;99.90;;;;;;5092301;28;20028;-86
2022/07/01 10:47:36;;;;;;;1.05;0.60;;;19.30;99.90;;;;;;5099932;28;20031;-85
2022/07/01 10:50:09;;;;;;;0.77;0.50;;;19.30;99.90;;;;;;5093459;28;20024;-85
2022/07/01 10:52:35;;;;;;;2.05;0.50;;;19.10;99.90;;;;;;5092514;28;20024;-86
2022/07/01 10:55:06;;;;;;;1.10;0.40;;;19.10;99.90;;;;;;5092848;28;20030;-85
2022/07/01 10:57:38;;;;;;;2.22;0.57;;;19.00;99.90;;;;;;5094010;28;20104;-86
2022/07/01 11:00:04;;;;;;;4.03;0.40;;;19.00;99.90;;;;;;5091818;28;20024;-85
2022/07/01 11:02:35;;;;;;;3.85;0.60;;;19.00;99.50;;;;;;5093356;28;20035;-86
2022/07/01 11:05:09;;;;;;;0.40;0.40;;;19.00;99.90;;;;;;5087087;28;20469;-85
2022/07/01 11:07:38;;;;;;;0.50;0.40;;;19.10;99.90;;;;;;5093415;28;20021;-85
2022/07/01 11:10:07;;;;;;;1.75;0.40;;;19.10;99.90;;;;;;5094019;28;20084;-85
2022/07/01 11:12:33;;;;;;;1.92;0.60;;;19.20;99.10;;;;;;5089741;28;20040;-86
2022/07/01 11:15:05;;;;;;;1.73;0.45;;;19.40;99.50;;;;;;5074086;28;20078;-85
2022/07/01 11:17:31;;;;;;;0.75;0.60;;;19.50;99.00;;;;;;5079379;28;20457;-85
2022/07/01 11:19:58;;;;;;;1.02;0.68;;;19.50;99.00;;;;;;5055888;28;20069;-86
2022/07/01 11:22:32;;;;;;;1.02;0.40;;;19.60;97.50;;;;;;5056184;28;20032;-85
2022/07/01 11:25:09;;;;;;;2.05;0.40;;;19.70;97.50;;;;;;5073958;28;20024;-85
2022/07/01 11:27:36;;;;;;;0.90;0.47;;;20.00;97.30;;;;;;5073194;28;20110;-85
2022/07/01 11:30:06;;;;;;;1.90;0.50;;;20.10;96.60;;;;;;5056415;28;20024;-85
2022/07/01 11:32:34;;;;;;;1.08;0.30;;;20.20;97.20;;;;;;5055413;28;20035;-86
2022/07/01 11:35:01;;;;;;;0.90;0.45;;;20.30;96.70;;;;;;5076392;28;20097;-86
2022/07/01 11:40:15;;;;;;;2.80;0.50;;;20.60;95.80;;;;;;5073093;28;20073;-86
2022/07/01 11:42:41;;;;;;;1.17;0.50;;;20.80;95.30;;;;;;5072717;28;20540;-85
2022/07/01 11:45:07;;;;;;;2.03;0.47;;;20.80;94.70;;;;;;5055497;28;20483;-86
2022/07/01 11:47:33;;;;;;;1.27;0.63;;;20.90;94.90;;;;;;5061189;28;20039;-86
2022/07/01 11:50:00;;;;;;;1.13;0.38;;;21.00;94.50;;;;;;5073433;28;20028;-85
2022/07/01 11:52:27;;;;;;;0.40;0.40;;;21.10;94.00;;;;;;5055880;28;20112;-85
2022/07/01 11:54:59;;;;;;;1.55;0.50;;;21.20;94.00;;;;;;5074604;28;20278;-86
2022/07/01 11:57:29;;;;;;;0.93;0.50;;;21.30;94.40;;;;;;5076798;28;20044;-86
2022/07/01 11:59:56;;;;;;;2.15;0.60;;;21.20;93.80;;;;;;5051111;28;20056;-86
2022/07/01 12:02:23;;;;;;;1.42;0.35;;;21.40;94.40;;;;;;5076897;28;20020;-85
2022/07/01 12:04:51;;;;;;;0.65;0.30;;;21.40;94.00;;;;;;5076287;28;20171;-86
2022/07/01 12:07:21;;;;;;;1.13;0.50;;;21.50;93.80;;;;;;5059193;28;20020;-86
2022/07/01 12:09:47;;;;;;;1.08;0.47;;;21.40;93.60;;;;;;5059074;28;20097;-86
2022/07/01 12:12:21;;;;;;;1.05;0.40;;;21.40;93.70;;;;;;5059219;28;20027;-86
2022/07/01 12:14:58;;;;;;;1.02;0.50;;;21.50;93.70;;;;;;5058784;28;20424;-86
2022/07/01 12:17:26;;;;;;;3.40;0.60;;;21.40;93.30;;;;;;5064952;28;20028;-86
2022/07/01 12:19:53;;;;;;;1.00;0.60;;;21.40;92.90;;;;;;5067458;28;20021;-86
2022/07/01 12:22:24;;;;;;;2.20;0.80;;;21.30;93.10;;;;;;5059106;28;20023;-86
2022/07/01 12:24:50;;;;;;;0.80;0.38;;;21.40;93.00;;;;;;5058492;28;20512;-86
2022/07/01 12:27:19;;;;;;;2.00;0.55;;;21.50;93.10;;;;;;5058794;28;20040;-86
2022/07/01 12:29:49;;;;;;;0.50;0.32;;;21.50;92.20;;;;;;5058511;28;20034;-86
2022/07/01 12:32:18;;;;;;;0.50;0.40;;;21.60;92.60;;;;;;5076022;28;20016;-86
2022/07/01 12:34:46;;;;;;;0.93;0.40;;;21.60;92.80;;;;;;5075593;28;20098;-86
2022/07/01 12:37:25;;;;;;;2.13;0.50;;;21.70;92.60;;;;;;5058499;28;20032;-86
2022/07/01 12:39:59;;;;;;;1.38;0.40;;;21.90;93.20;;;;;;5057990;28;20146;-86
2022/07/01 12:42:29;;;;;;;1.75;0.40;;;21.80;93.00;;;;;;5058212;28;20016;-86
2022/07/01 12:45:00;;;;;;;1.40;0.52;;;21.60;92.70;;;;;;5058345;28;20028;-86
2022/07/01 12:47:33;;;;;;;2.22;0.95;;;21.70;92.90;;;;;;5058262;28;20454;-86
2022/07/01 12:50:20;;;;;;;2.17;0.55;;;21.90;92.50;;;;;;5059216;28;20029;-86
2022/07/01 12:53:07;;;;;;;2.35;0.50;;;22.10;91.40;;;;;;5058241;28;20063;-86
2022/07/01 12:55:39;;;;;;;1.15;0.50;;;22.30;91.30;;;;;;5058056;28;20102;-87
2022/07/01 12:58:07;;;;;;;0.47;0.43;;;22.40;91.10;;;;;;5075832;28;20548;-86
2022/07/01 13:00:34;;;;;;;0.95;0.50;;;22.80;90.50;;;;;;5057534;28;20033;-88
2022/07/01 13:03:01;;;;;;;1.05;0.50;;;23.30;90.20;;;;;;5075490;28;20017;-87
2022/07/01 13:05:30;;;;;;;1.05;0.60;;;23.60;90.30;;;;;;5075780;28;20476;-86
2022/07/01 13:07:56;;;;;;;1.30;0.50;;;23.70;84.80;;;;;;5075249;28;20078;-87
2022/07/01 13:10:22;;;;;;;1.45;0.40;;;23.80;85.80;;;;;;5058283;28;20021;-88